sensor_id;sensor_type;location;lat;lon;timestamp;temperature;humidity
40670;DHT22;26355;45.528;9.234;2022-09-14T00:01:36;26.80;95.80
40670;DHT22;26355;45.528;9.234;2022-09-14T00:04:09;26.70;95.90
40670;DHT22;26355;45.528;9.234;2022-09-14T00:06:35;26.70;96.00
40670;DHT22;26355;45.528;9.234;2022-09-14T00:09:03;26.70;96.10
40670;DHT22;26355;45.528;9.234;2022-09-14T00:11:32;26.60;96.10
40670;DHT22;26355;45.528;9.234;2022-09-14T00:13:59;26.60;96.20
40670;DHT22;26355;45.528;9.234;2022-09-14T00:16:31;26.60;96.30
40670;DHT22;26355;45.528;9.234;2022-09-14T00:19:00;26.60;96.40
40670;DHT22;26355;45.528;9.234;2022-09-14T00:21:29;26.60;96.40
40670;DHT22;26355;45.528;9.234;2022-09-14T00:23:55;26.60;96.40
40670;DHT22;26355;45.528;9.234;2022-09-14T00:26:22;26.60;96.40
40670;DHT22;26355;45.528;9.234;2022-09-14T00:28:52;26.60;96.40
40670;DHT22;26355;45.528;9.234;2022-09-14T00:31:19;26.60;96.60
40670;DHT22;26355;45.528;9.234;2022-09-14T00:33:46;26.60;96.70
40670;DHT22;26355;45.528;9.234;2022-09-14T00:36:16;26.60;96.70
40670;DHT22;26355;45.528;9.234;2022-09-14T00:38:44;26.60;96.90
40670;DHT22;26355;45.528;9.234;2022-09-14T00:41:11;26.60;97.00
40670;DHT22;26355;45.528;9.234;2022-09-14T00:44:00;26.50;97.20
40670;DHT22;26355;45.528;9.234;2022-09-14T00:46:29;26.60;97.20
40670;DHT22;26355;45.528;9.234;2022-09-14T00:48:59;26.60;97.10
40670;DHT22;26355;45.528;9.234;2022-09-14T00:51:25;26.60;97.10
40670;DHT22;26355;45.528;9.234;2022-09-14T00:53:52;26.50;97.10
40670;DHT22;26355;45.528;9.234;2022-09-14T00:56:18;26.50;97.20
40670;DHT22;26355;45.528;9.234;2022-09-14T00:58:47;26.50;97.20
40670;DHT22;26355;45.528;9.234;2022-09-14T01:01:14;26.50;97.40
40670;DHT22;26355;45.528;9.234;2022-09-14T01:03:39;26.40;97.40
40670;DHT22;26355;45.528;9.234;2022-09-14T01:06:27;26.40;97.40
40670;DHT22;26355;45.528;9.234;2022-09-14T01:11:57;26.50;97.60
40670;DHT22;26355;45.528;9.234;2022-09-14T01:14:36;26.50;97.50
40670;DHT22;26355;45.528;9.234;2022-09-14T01:25:44;26.40;97.80
40670;DHT22;26355;45.528;9.234;2022-09-14T01:28:46;26.30;97.90
40670;DHT22;26355;45.528;9.234;2022-09-14T01:37:10;26.30;98.00
40670;DHT22;26355;45.528;9.234;2022-09-14T01:39:43;26.30;98.00
40670;DHT22;26355;45.528;9.234;2022-09-14T01:42:11;26.30;98.10
40670;DHT22;26355;45.528;9.234;2022-09-14T01:44:41;26.40;98.10
40670;DHT22;26355;45.528;9.234;2022-09-14T01:47:14;26.40;98.20
40670;DHT22;26355;45.528;9.234;2022-09-14T01:49:49;26.40;98.20
40670;DHT22;26355;45.528;9.234;2022-09-14T01:52:21;26.40;98.30
40670;DHT22;26355;45.528;9.234;2022-09-14T01:54:59;26.40;98.50
40670;DHT22;26355;45.528;9.234;2022-09-14T01:57:53;26.40;98.30
40670;DHT22;26355;45.528;9.234;2022-09-14T02:00:21;26.40;98.40
40670;DHT22;26355;45.528;9.234;2022-09-14T02:05:30;26.40;98.40
40670;DHT22;26355;45.528;9.234;2022-09-14T02:07:58;26.40;98.50
40670;DHT22;26355;45.528;9.234;2022-09-14T02:10:25;26.30;98.50
40670;DHT22;26355;45.528;9.234;2022-09-14T02:12:52;26.30;98.50
40670;DHT22;26355;45.528;9.234;2022-09-14T02:15:18;26.30;98.50
40670;DHT22;26355;45.528;9.234;2022-09-14T02:17:44;26.30;98.60
40670;DHT22;26355;45.528;9.234;2022-09-14T02:20:25;26.30;98.70
40670;DHT22;26355;45.528;9.234;2022-09-14T02:22:53;26.30;98.70
40670;DHT22;26355;45.528;9.234;2022-09-14T02:25:19;26.30;98.60
40670;DHT22;26355;45.528;9.234;2022-09-14T02:27:45;26.30;98.60
40670;DHT22;26355;45.528;9.234;2022-09-14T02:30:12;26.30;98.70
40670;DHT22;26355;45.528;9.234;2022-09-14T02:35:44;26.30;98.80
40670;DHT22;26355;45.528;9.234;2022-09-14T02:38:39;26.30;99.00
40670;DHT22;26355;45.528;9.234;2022-09-14T02:43:57;26.30;98.90
40670;DHT22;26355;45.528;9.234;2022-09-14T02:46:54;26.30;98.90
40670;DHT22;26355;45.528;9.234;2022-09-14T02:49:32;26.30;98.90
40670;DHT22;26355;45.528;9.234;2022-09-14T02:52:05;26.30;98.80
40670;DHT22;26355;45.528;9.234;2022-09-14T02:54:37;26.30;98.80
40670;DHT22;26355;45.528;9.234;2022-09-14T02:57:04;26.30;98.90
40670;DHT22;26355;45.528;9.234;2022-09-14T02:59:30;26.30;98.80
40670;DHT22;26355;45.528;9.234;2022-09-14T03:01:58;26.30;98.90
40670;DHT22;26355;45.528;9.234;2022-09-14T03:04:24;26.30;99.00
40670;DHT22;26355;45.528;9.234;2022-09-14T03:06:50;26.30;99.00
40670;DHT22;26355;45.528;9.234;2022-09-14T03:09:15;26.30;98.90
40670;DHT22;26355;45.528;9.234;2022-09-14T03:11:41;26.30;98.90
40670;DHT22;26355;45.528;9.234;2022-09-14T03:14:08;26.30;99.10
40670;DHT22;26355;45.528;9.234;2022-09-14T03:16:33;26.30;99.10
40670;DHT22;26355;45.528;9.234;2022-09-14T03:18:59;26.30;99.20
40670;DHT22;26355;45.528;9.234;2022-09-14T03:21:24;26.30;99.20
40670;DHT22;26355;45.528;9.234;2022-09-14T03:23:52;26.20;99.30
40670;DHT22;26355;45.528;9.234;2022-09-14T03:26:21;26.30;99.40
40670;DHT22;26355;45.528;9.234;2022-09-14T03:28:51;26.30;99.40
40670;DHT22;26355;45.528;9.234;2022-09-14T03:31:18;26.30;99.40
40670;DHT22;26355;45.528;9.234;2022-09-14T03:33:43;26.30;99.40
40670;DHT22;26355;45.528;9.234;2022-09-14T03:36:12;26.30;99.40
40670;DHT22;26355;45.528;9.234;2022-09-14T03:38:39;26.20;99.40
40670;DHT22;26355;45.528;9.234;2022-09-14T03:41:10;26.30;99.50
40670;DHT22;26355;45.528;9.234;2022-09-14T03:43:35;26.30;99.60
40670;DHT22;26355;45.528;9.234;2022-09-14T03:46:12;26.20;99.90
40670;DHT22;26355;45.528;9.234;2022-09-14T03:48:38;26.20;99.60
40670;DHT22;26355;45.528;9.234;2022-09-14T03:51:06;26.10;99.80
40670;DHT22;26355;45.528;9.234;2022-09-14T03:53:31;26.20;99.70
40670;DHT22;26355;45.528;9.234;2022-09-14T03:55:57;26.10;99.90
40670;DHT22;26355;45.528;9.234;2022-09-14T03:58:29;26.10;99.80
40670;DHT22;26355;45.528;9.234;2022-09-14T04:00:55;26.10;99.90
40670;DHT22;26355;45.528;9.234;2022-09-14T04:03:21;26.10;99.90
40670;DHT22;26355;45.528;9.234;2022-09-14T04:05:54;26.10;99.90
40670;DHT22;26355;45.528;9.234;2022-09-14T04:08:20;26.00;99.90
40670;DHT22;26355;45.528;9.234;2022-09-14T04:10:46;26.00;99.90
40670;DHT22;26355;45.528;9.234;2022-09-14T04:13:12;26.00;99.90
40670;DHT22;26355;45.528;9.234;2022-09-14T04:15:37;26.10;99.90
40670;DHT22;26355;45.528;9.234;2022-09-14T04:18:03;26.00;99.90
40670;DHT22;26355;45.528;9.234;2022-09-14T04:20:29;26.00;99.90
40670;DHT22;26355;45.528;9.234;2022-09-14T04:22:54;26.00;99.90
40670;DHT22;26355;45.528;9.234;2022-09-14T04:25:20;26.10;99.90
40670;DHT22;26355;45.528;9.234;2022-09-14T04:27:49;26.10;99.90
40670;DHT22;26355;45.528;9.234;2022-09-14T04:30:14;26.10;99.90
40670;DHT22;26355;45.528;9.234;2022-09-14T04:32:40;26.10;99.90
40670;DHT22;26355;45.528;9.234;2022-09-14T04:35:06;26.10;99.90
40670;DHT22;26355;45.528;9.234;2022-09-14T04:37:32;26.10;99.90
40670;DHT22;26355;45.528;9.234;2022-09-14T04:39:57;26.10;99.90
40670;DHT22;26355;45.528;9.234;2022-09-14T04:42:23;26.10;99.90
40670;DHT22;26355;45.528;9.234;2022-09-14T04:44:49;26.00;99.90
40670;DHT22;26355;45.528;9.234;2022-09-14T04:47:14;26.10;99.90
40670;DHT22;26355;45.528;9.234;2022-09-14T04:49:40;26.10;99.90
40670;DHT22;26355;45.528;9.234;2022-09-14T04:52:05;26.20;99.90
40670;DHT22;26355;45.528;9.234;2022-09-14T04:54:31;26.20;99.90
40670;DHT22;26355;45.528;9.234;2022-09-14T04:56:57;26.10;99.90
40670;DHT22;26355;45.528;9.234;2022-09-14T04:59:22;26.20;99.90
40670;DHT22;26355;45.528;9.234;2022-09-14T05:01:48;26.20;99.90
40670;DHT22;26355;45.528;9.234;2022-09-14T05:04:15;26.20;99.90
40670;DHT22;26355;45.528;9.234;2022-09-14T05:06:42;26.10;99.90
40670;DHT22;26355;45.528;9.234;2022-09-14T05:09:12;26.10;99.90
40670;DHT22;26355;45.528;9.234;2022-09-14T05:11:39;26.10;99.90
40670;DHT22;26355;45.528;9.234;2022-09-14T05:14:05;26.20;99.90
40670;DHT22;26355;45.528;9.234;2022-09-14T05:16:32;26.20;99.90
40670;DHT22;26355;45.528;9.234;2022-09-14T05:19:00;26.20;99.90
40670;DHT22;26355;45.528;9.234;2022-09-14T05:21:30;26.20;99.90
40670;DHT22;26355;45.528;9.234;2022-09-14T05:23:58;26.20;99.90
40670;DHT22;26355;45.528;9.234;2022-09-14T05:26:26;26.10;99.90
40670;DHT22;26355;45.528;9.234;2022-09-14T05:28:54;26.20;99.90
40670;DHT22;26355;45.528;9.234;2022-09-14T05:31:20;26.20;99.90
40670;DHT22;26355;45.528;9.234;2022-09-14T05:33:46;26.20;99.90
40670;DHT22;26355;45.528;9.234;2022-09-14T05:36:12;26.20;99.90
40670;DHT22;26355;45.528;9.234;2022-09-14T05:38:39;26.20;99.90
40670;DHT22;26355;45.528;9.234;2022-09-14T05:41:06;26.20;99.90
40670;DHT22;26355;45.528;9.234;2022-09-14T05:43:32;26.20;99.90
40670;DHT22;26355;45.528;9.234;2022-09-14T05:46:03;26.20;99.90
40670;DHT22;26355;45.528;9.234;2022-09-14T05:48:33;26.20;99.90
40670;DHT22;26355;45.528;9.234;2022-09-14T05:51:05;26.10;99.90
40670;DHT22;26355;45.528;9.234;2022-09-14T05:53:32;26.10;99.90
40670;DHT22;26355;45.528;9.234;2022-09-14T05:56:10;26.00;99.90
40670;DHT22;26355;45.528;9.234;2022-09-14T05:58:36;26.10;99.90
40670;DHT22;26355;45.528;9.234;2022-09-14T06:03:32;26.30;99.90
40670;DHT22;26355;45.528;9.234;2022-09-14T06:05:57;26.30;99.90
40670;DHT22;26355;45.528;9.234;2022-09-14T06:08:23;26.30;99.90
40670;DHT22;26355;45.528;9.234;2022-09-14T06:10:49;26.30;99.90
40670;DHT22;26355;45.528;9.234;2022-09-14T06:13:14;26.40;99.90
40670;DHT22;26355;45.528;9.234;2022-09-14T06:15:40;26.30;99.90
40670;DHT22;26355;45.528;9.234;2022-09-14T06:18:05;26.40;99.90
40670;DHT22;26355;45.528;9.234;2022-09-14T06:20:31;26.50;99.90
40670;DHT22;26355;45.528;9.234;2022-09-14T06:22:57;26.50;99.90
40670;DHT22;26355;45.528;9.234;2022-09-14T06:25:22;26.50;99.90
40670;DHT22;26355;45.528;9.234;2022-09-14T06:27:48;26.60;99.90
40670;DHT22;26355;45.528;9.234;2022-09-14T06:30:13;26.50;99.90
40670;DHT22;26355;45.528;9.234;2022-09-14T06:32:41;26.60;99.90
40670;DHT22;26355;45.528;9.234;2022-09-14T06:35:06;26.50;99.90
40670;DHT22;26355;45.528;9.234;2022-09-14T06:37:32;26.60;99.90
40670;DHT22;26355;45.528;9.234;2022-09-14T06:39:58;26.60;99.90
40670;DHT22;26355;45.528;9.234;2022-09-14T06:42:23;26.60;99.90
40670;DHT22;26355;45.528;9.234;2022-09-14T06:44:49;26.60;99.90
40670;DHT22;26355;45.528;9.234;2022-09-14T06:47:15;26.60;99.90
40670;DHT22;26355;45.528;9.234;2022-09-14T06:49:40;26.60;99.90
40670;DHT22;26355;45.528;9.234;2022-09-14T06:52:06;26.60;99.90
40670;DHT22;26355;45.528;9.234;2022-09-14T06:54:31;26.60;99.90
40670;DHT22;26355;45.528;9.234;2022-09-14T06:56:57;26.60;99.90
40670;DHT22;26355;45.528;9.234;2022-09-14T06:59:23;26.60;99.90
40670;DHT22;26355;45.528;9.234;2022-09-14T07:01:48;26.60;99.90
40670;DHT22;26355;45.528;9.234;2022-09-14T07:04:14;26.60;99.90
40670;DHT22;26355;45.528;9.234;2022-09-14T07:06:45;26.70;99.90
40670;DHT22;26355;45.528;9.234;2022-09-14T07:09:13;26.70;99.90
40670;DHT22;26355;45.528;9.234;2022-09-14T07:11:39;26.80;99.90
40670;DHT22;26355;45.528;9.234;2022-09-14T07:14:06;26.80;99.90
40670;DHT22;26355;45.528;9.234;2022-09-14T07:16:33;26.90;99.90
40670;DHT22;26355;45.528;9.234;2022-09-14T07:19:02;26.90;99.90
40670;DHT22;26355;45.528;9.234;2022-09-14T07:21:29;26.90;99.90
40670;DHT22;26355;45.528;9.234;2022-09-14T07:23:55;27.00;99.90
40670;DHT22;26355;45.528;9.234;2022-09-14T07:26:29;26.70;99.90
40670;DHT22;26355;45.528;9.234;2022-09-14T07:28:58;26.70;99.90
40670;DHT22;26355;45.528;9.234;2022-09-14T07:33:56;26.50;99.90
40670;DHT22;26355;45.528;9.234;2022-09-14T07:36:22;26.40;99.90
40670;DHT22;26355;45.528;9.234;2022-09-14T07:38:49;26.40;99.90
40670;DHT22;26355;45.528;9.234;2022-09-14T07:41:15;26.40;99.90
40670;DHT22;26355;45.528;9.234;2022-09-14T07:43:40;26.50;99.90
40670;DHT22;26355;45.528;9.234;2022-09-14T07:46:06;26.60;99.90
40670;DHT22;26355;45.528;9.234;2022-09-14T07:48:33;26.60;99.90
40670;DHT22;26355;45.528;9.234;2022-09-14T07:51:03;26.60;99.90
40670;DHT22;26355;45.528;9.234;2022-09-14T07:53:29;26.50;99.90
40670;DHT22;26355;45.528;9.234;2022-09-14T07:55:59;26.50;99.90
40670;DHT22;26355;45.528;9.234;2022-09-14T07:58:29;26.50;99.90
40670;DHT22;26355;45.528;9.234;2022-09-14T08:01:06;26.60;99.90
40670;DHT22;26355;45.528;9.234;2022-09-14T08:03:37;26.60;99.90
40670;DHT22;26355;45.528;9.234;2022-09-14T08:06:16;26.70;99.90
40670;DHT22;26355;45.528;9.234;2022-09-14T08:08:43;26.70;99.90
40670;DHT22;26355;45.528;9.234;2022-09-14T08:13:43;26.50;99.90
40670;DHT22;26355;45.528;9.234;2022-09-14T08:16:09;26.50;99.90
40670;DHT22;26355;45.528;9.234;2022-09-14T08:18:36;26.60;99.90
40670;DHT22;26355;45.528;9.234;2022-09-14T08:21:07;26.60;99.90
40670;DHT22;26355;45.528;9.234;2022-09-14T08:23:34;26.70;99.90
40670;DHT22;26355;45.528;9.234;2022-09-14T08:26:04;26.70;99.90
40670;DHT22;26355;45.528;9.234;2022-09-14T08:28:30;26.70;99.90
40670;DHT22;26355;45.528;9.234;2022-09-14T08:31:01;26.60;99.90
40670;DHT22;26355;45.528;9.234;2022-09-14T08:33:27;26.60;99.90
40670;DHT22;26355;45.528;9.234;2022-09-14T08:35:52;26.60;99.90
40670;DHT22;26355;45.528;9.234;2022-09-14T08:38:18;26.70;99.90
40670;DHT22;26355;45.528;9.234;2022-09-14T08:40:44;26.70;99.90
40670;DHT22;26355;45.528;9.234;2022-09-14T08:43:12;26.70;99.90
40670;DHT22;26355;45.528;9.234;2022-09-14T08:45:40;26.70;99.90
40670;DHT22;26355;45.528;9.234;2022-09-14T08:48:30;26.70;99.90
40670;DHT22;26355;45.528;9.234;2022-09-14T08:50:57;26.70;99.90
40670;DHT22;26355;45.528;9.234;2022-09-14T08:53:24;26.80;99.90
40670;DHT22;26355;45.528;9.234;2022-09-14T08:55:52;26.80;99.90
40670;DHT22;26355;45.528;9.234;2022-09-14T08:58:21;26.60;99.90
40670;DHT22;26355;45.528;9.234;2022-09-14T09:06:17;26.70;99.90
40670;DHT22;26355;45.528;9.234;2022-09-14T09:08:52;26.80;99.90
40670;DHT22;26355;45.528;9.234;2022-09-14T09:11:25;26.80;99.90
40670;DHT22;26355;45.528;9.234;2022-09-14T09:13:53;27.00;99.90
40670;DHT22;26355;45.528;9.234;2022-09-14T09:16:22;26.90;99.90
40670;DHT22;26355;45.528;9.234;2022-09-14T09:18:52;26.80;99.90
40670;DHT22;26355;45.528;9.234;2022-09-14T09:21:27;27.00;99.90
40670;DHT22;26355;45.528;9.234;2022-09-14T09:24:21;27.10;99.90
40670;DHT22;26355;45.528;9.234;2022-09-14T09:26:48;27.20;99.90
40670;DHT22;26355;45.528;9.234;2022-09-14T09:29:13;27.30;99.90
40670;DHT22;26355;45.528;9.234;2022-09-14T09:31:41;27.40;99.90
40670;DHT22;26355;45.528;9.234;2022-09-14T09:34:13;27.40;99.90
40670;DHT22;26355;45.528;9.234;2022-09-14T09:36:42;27.40;99.90
40670;DHT22;26355;45.528;9.234;2022-09-14T09:39:08;27.50;99.90
40670;DHT22;26355;45.528;9.234;2022-09-14T09:44:09;27.50;99.90
40670;DHT22;26355;45.528;9.234;2022-09-14T09:46:56;27.50;99.90
40670;DHT22;26355;45.528;9.234;2022-09-14T09:49:36;27.60;99.90
40670;DHT22;26355;45.528;9.234;2022-09-14T09:52:14;27.60;99.90
40670;DHT22;26355;45.528;9.234;2022-09-14T09:54:42;27.70;99.90
40670;DHT22;26355;45.528;9.234;2022-09-14T09:57:33;27.70;99.90
40670;DHT22;26355;45.528;9.234;2022-09-14T10:00:24;27.80;99.90
40670;DHT22;26355;45.528;9.234;2022-09-14T10:02:50;27.90;99.90
40670;DHT22;26355;45.528;9.234;2022-09-14T10:10:17;27.90;99.90
40670;DHT22;26355;45.528;9.234;2022-09-14T10:12:49;27.80;99.90
40670;DHT22;26355;45.528;9.234;2022-09-14T10:15:28;27.60;99.90
40670;DHT22;26355;45.528;9.234;2022-09-14T10:20:26;27.20;99.90
40670;DHT22;26355;45.528;9.234;2022-09-14T10:22:52;27.20;99.90
40670;DHT22;26355;45.528;9.234;2022-09-14T10:27:58;27.30;99.90
40670;DHT22;26355;45.528;9.234;2022-09-14T10:30:39;27.40;99.90
40670;DHT22;26355;45.528;9.234;2022-09-14T10:33:10;27.50;99.90
40670;DHT22;26355;45.528;9.234;2022-09-14T10:36:23;27.50;99.90
40670;DHT22;26355;45.528;9.234;2022-09-14T10:39:07;27.60;99.90
40670;DHT22;26355;45.528;9.234;2022-09-14T10:49:45;28.10;99.90
40670;DHT22;26355;45.528;9.234;2022-09-14T10:52:32;28.20;99.90
40670;DHT22;26355;45.528;9.234;2022-09-14T10:55:17;28.20;99.90
40670;DHT22;26355;45.528;9.234;2022-09-14T11:00:17;28.40;99.90
40670;DHT22;26355;45.528;9.234;2022-09-14T11:09:06;28.70;99.90
40670;DHT22;26355;45.528;9.234;2022-09-14T11:12:35;28.80;99.90
40670;DHT22;26355;45.528;9.234;2022-09-14T11:18:45;28.90;99.90
40670;DHT22;26355;45.528;9.234;2022-09-14T11:26:22;28.90;99.90
40670;DHT22;26355;45.528;9.234;2022-09-14T11:34:25;28.80;99.70
40670;DHT22;26355;45.528;9.234;2022-09-14T11:36:59;28.70;99.70
40670;DHT22;26355;45.528;9.234;2022-09-14T11:39:38;28.80;99.90
40670;DHT22;26355;45.528;9.234;2022-09-14T11:42:19;28.70;99.60
40670;DHT22;26355;45.528;9.234;2022-09-14T11:44:57;28.80;99.60
40670;DHT22;26355;45.528;9.234;2022-09-14T11:47:24;29.00;99.90
40670;DHT22;26355;45.528;9.234;2022-09-14T11:49:55;29.10;99.80
40670;DHT22;26355;45.528;9.234;2022-09-14T11:52:24;29.20;99.30
40670;DHT22;26355;45.528;9.234;2022-09-14T11:54:50;29.40;99.10
40670;DHT22;26355;45.528;9.234;2022-09-14T11:57:38;29.40;99.00
40670;DHT22;26355;45.528;9.234;2022-09-14T12:00:08;29.30;99.00
40670;DHT22;26355;45.528;9.234;2022-09-14T12:05:31;29.00;98.90
40670;DHT22;26355;45.528;9.234;2022-09-14T12:08:23;28.90;99.00
40670;DHT22;26355;45.528;9.234;2022-09-14T12:13:39;28.70;99.10
40670;DHT22;26355;45.528;9.234;2022-09-14T12:16:08;28.80;99.20
40670;DHT22;26355;45.528;9.234;2022-09-14T12:18:38;28.90;99.00
40670;DHT22;26355;45.528;9.234;2022-09-14T12:21:20;28.90;99.10
40670;DHT22;26355;45.528;9.234;2022-09-14T12:23:49;28.90;99.10
40670;DHT22;26355;45.528;9.234;2022-09-14T12:28:47;28.80;99.50
40670;DHT22;26355;45.528;9.234;2022-09-14T12:34:18;28.80;99.50
40670;DHT22;26355;45.528;9.234;2022-09-14T12:39:22;28.80;99.60
40670;DHT22;26355;45.528;9.234;2022-09-14T12:46:56;28.50;99.80
40670;DHT22;26355;45.528;9.234;2022-09-14T12:49:30;28.50;99.90
40670;DHT22;26355;45.528;9.234;2022-09-14T12:52:00;28.50;99.70
40670;DHT22;26355;45.528;9.234;2022-09-14T12:54:44;28.40;99.30
40670;DHT22;26355;45.528;9.234;2022-09-14T12:57:35;28.20;99.30
40670;DHT22;26355;45.528;9.234;2022-09-14T13:00:13;28.10;99.60
40670;DHT22;26355;45.528;9.234;2022-09-14T13:02:56;28.00;99.80
40670;DHT22;26355;45.528;9.234;2022-09-14T13:05:27;28.00;99.90
40670;DHT22;26355;45.528;9.234;2022-09-14T13:07:54;28.10;99.80
40670;DHT22;26355;45.528;9.234;2022-09-14T13:10:33;28.10;99.80
40670;DHT22;26355;45.528;9.234;2022-09-14T13:13:05;28.20;99.90
40670;DHT22;26355;45.528;9.234;2022-09-14T13:15:36;28.30;99.90
40670;DHT22;26355;45.528;9.234;2022-09-14T13:20:33;28.20;99.50
40670;DHT22;26355;45.528;9.234;2022-09-14T13:22:59;28.20;99.60
40670;DHT22;26355;45.528;9.234;2022-09-14T13:27:54;28.20;99.60
40670;DHT22;26355;45.528;9.234;2022-09-14T13:30:22;28.30;99.50
40670;DHT22;26355;45.528;9.234;2022-09-14T13:32:50;28.20;98.90
40670;DHT22;26355;45.528;9.234;2022-09-14T13:35:29;28.30;99.00
40670;DHT22;26355;45.528;9.234;2022-09-14T13:37:57;28.40;99.00
40670;DHT22;26355;45.528;9.234;2022-09-14T13:40:24;28.40;99.10
40670;DHT22;26355;45.528;9.234;2022-09-14T13:42:52;28.40;99.00
40670;DHT22;26355;45.528;9.234;2022-09-14T13:45:18;28.50;99.20
40670;DHT22;26355;45.528;9.234;2022-09-14T13:47:45;28.50;99.10
40670;DHT22;26355;45.528;9.234;2022-09-14T13:50:11;28.40;98.80
40670;DHT22;26355;45.528;9.234;2022-09-14T13:52:40;28.40;98.70
40670;DHT22;26355;45.528;9.234;2022-09-14T14:00:58;28.20;99.20
40670;DHT22;26355;45.528;9.234;2022-09-14T14:06:20;28.10;99.60
40670;DHT22;26355;45.528;9.234;2022-09-14T14:09:07;28.20;99.70
40670;DHT22;26355;45.528;9.234;2022-09-14T14:11:37;28.10;99.70
40670;DHT22;26355;45.528;9.234;2022-09-14T14:19:53;28.10;99.90
40670;DHT22;26355;45.528;9.234;2022-09-14T14:22:25;28.10;99.90
40670;DHT22;26355;45.528;9.234;2022-09-14T14:24:51;28.00;99.90
40670;DHT22;26355;45.528;9.234;2022-09-14T14:27:35;28.00;99.90
40670;DHT22;26355;45.528;9.234;2022-09-14T14:30:12;28.00;99.90
40670;DHT22;26355;45.528;9.234;2022-09-14T14:32:38;28.00;99.90
40670;DHT22;26355;45.528;9.234;2022-09-14T14:35:17;28.10;99.90
40670;DHT22;26355;45.528;9.234;2022-09-14T14:37:44;28.20;99.90
40670;DHT22;26355;45.528;9.234;2022-09-14T14:40:11;28.30;99.90
40670;DHT22;26355;45.528;9.234;2022-09-14T14:42:37;28.40;99.90
40670;DHT22;26355;45.528;9.234;2022-09-14T14:45:03;28.40;99.90
40670;DHT22;26355;45.528;9.234;2022-09-14T14:47:29;28.40;99.90
40670;DHT22;26355;45.528;9.234;2022-09-14T14:49:54;28.40;99.90
40670;DHT22;26355;45.528;9.234;2022-09-14T14:52:20;28.40;99.90
40670;DHT22;26355;45.528;9.234;2022-09-14T14:54:46;28.40;99.90
40670;DHT22;26355;45.528;9.234;2022-09-14T14:57:11;28.40;99.90
40670;DHT22;26355;45.528;9.234;2022-09-14T14:59:37;28.30;99.90
40670;DHT22;26355;45.528;9.234;2022-09-14T15:02:04;28.30;99.90
40670;DHT22;26355;45.528;9.234;2022-09-14T15:04:31;28.40;99.90
40670;DHT22;26355;45.528;9.234;2022-09-14T15:06:57;28.40;99.90
40670;DHT22;26355;45.528;9.234;2022-09-14T15:09:27;28.40;99.90
40670;DHT22;26355;45.528;9.234;2022-09-14T15:11:54;28.30;99.90
40670;DHT22;26355;45.528;9.234;2022-09-14T15:14:22;28.10;99.90
40670;DHT22;26355;45.528;9.234;2022-09-14T15:16:48;28.10;99.90
40670;DHT22;26355;45.528;9.234;2022-09-14T15:19:14;28.20;99.90
40670;DHT22;26355;45.528;9.234;2022-09-14T15:21:41;28.20;99.90
40670;DHT22;26355;45.528;9.234;2022-09-14T15:24:07;28.00;99.90
40670;DHT22;26355;45.528;9.234;2022-09-14T15:26:34;28.00;99.90
40670;DHT22;26355;45.528;9.234;2022-09-14T15:29:00;28.10;99.90
40670;DHT22;26355;45.528;9.234;2022-09-14T15:31:26;28.10;99.90
40670;DHT22;26355;45.528;9.234;2022-09-14T15:33:52;28.20;99.90
40670;DHT22;26355;45.528;9.234;2022-09-14T15:36:57;28.10;99.90
40670;DHT22;26355;45.528;9.234;2022-09-14T15:39:27;27.90;99.90
40670;DHT22;26355;45.528;9.234;2022-09-14T15:41:54;27.80;99.90
40670;DHT22;26355;45.528;9.234;2022-09-14T15:44:20;27.90;99.90
40670;DHT22;26355;45.528;9.234;2022-09-14T15:46:46;27.80;99.90
40670;DHT22;26355;45.528;9.234;2022-09-14T15:49:17;27.90;99.90
40670;DHT22;26355;45.528;9.234;2022-09-14T15:51:45;27.90;99.90
40670;DHT22;26355;45.528;9.234;2022-09-14T15:54:11;27.90;99.90
40670;DHT22;26355;45.528;9.234;2022-09-14T15:56:37;28.00;99.90
40670;DHT22;26355;45.528;9.234;2022-09-14T15:59:03;28.10;99.90
40670;DHT22;26355;45.528;9.234;2022-09-14T16:01:29;28.00;99.90
40670;DHT22;26355;45.528;9.234;2022-09-14T16:04:00;28.00;99.90
40670;DHT22;26355;45.528;9.234;2022-09-14T16:06:27;28.00;99.90
40670;DHT22;26355;45.528;9.234;2022-09-14T16:08:53;27.90;99.90
40670;DHT22;26355;45.528;9.234;2022-09-14T16:11:19;28.00;99.90
40670;DHT22;26355;45.528;9.234;2022-09-14T16:13:45;28.00;99.90
40670;DHT22;26355;45.528;9.234;2022-09-14T16:16:13;28.10;99.90
40670;DHT22;26355;45.528;9.234;2022-09-14T16:18:39;28.20;99.90
40670;DHT22;26355;45.528;9.234;2022-09-14T16:21:14;28.10;99.90
40670;DHT22;26355;45.528;9.234;2022-09-14T16:23:42;28.10;99.90
40670;DHT22;26355;45.528;9.234;2022-09-14T16:26:11;28.10;99.90
40670;DHT22;26355;45.528;9.234;2022-09-14T16:28:41;28.20;99.90
40670;DHT22;26355;45.528;9.234;2022-09-14T16:31:19;28.20;99.90
40670;DHT22;26355;45.528;9.234;2022-09-14T16:33:47;28.20;99.90
40670;DHT22;26355;45.528;9.234;2022-09-14T16:36:15;28.20;99.90
40670;DHT22;26355;45.528;9.234;2022-09-14T16:38:41;28.20;99.90
40670;DHT22;26355;45.528;9.234;2022-09-14T16:41:08;28.30;99.90
40670;DHT22;26355;45.528;9.234;2022-09-14T16:43:34;28.10;99.90
40670;DHT22;26355;45.528;9.234;2022-09-14T16:46:10;28.10;99.90
40670;DHT22;26355;45.528;9.234;2022-09-14T16:48:39;28.10;99.90
40670;DHT22;26355;45.528;9.234;2022-09-14T16:51:05;28.20;99.90
40670;DHT22;26355;45.528;9.234;2022-09-14T16:53:35;28.10;99.90
40670;DHT22;26355;45.528;9.234;2022-09-14T16:56:08;28.10;99.90
40670;DHT22;26355;45.528;9.234;2022-09-14T16:58:35;28.10;99.90
40670;DHT22;26355;45.528;9.234;2022-09-14T17:01:21;28.10;99.90
40670;DHT22;26355;45.528;9.234;2022-09-14T17:03:48;28.10;99.90
40670;DHT22;26355;45.528;9.234;2022-09-14T17:06:20;28.00;99.90
40670;DHT22;26355;45.528;9.234;2022-09-14T17:08:46;28.00;99.90
40670;DHT22;26355;45.528;9.234;2022-09-14T17:11:14;28.00;99.90
40670;DHT22;26355;45.528;9.234;2022-09-14T17:13:43;28.00;99.90
40670;DHT22;26355;45.528;9.234;2022-09-14T17:16:15;27.90;99.90
40670;DHT22;26355;45.528;9.234;2022-09-14T17:18:42;28.00;99.90
40670;DHT22;26355;45.528;9.234;2022-09-14T17:21:09;28.00;99.90
40670;DHT22;26355;45.528;9.234;2022-09-14T17:23:36;27.80;99.90
40670;DHT22;26355;45.528;9.234;2022-09-14T17:26:03;27.80;99.90
40670;DHT22;26355;45.528;9.234;2022-09-14T17:28:31;27.80;99.90
40670;DHT22;26355;45.528;9.234;2022-09-14T17:30:58;27.90;99.90
40670;DHT22;26355;45.528;9.234;2022-09-14T17:33:24;27.90;99.90
40670;DHT22;26355;45.528;9.234;2022-09-14T17:35:52;27.90;99.90
40670;DHT22;26355;45.528;9.234;2022-09-14T17:38:19;27.90;99.90
40670;DHT22;26355;45.528;9.234;2022-09-14T17:40:46;27.90;99.90
40670;DHT22;26355;45.528;9.234;2022-09-14T17:43:13;27.90;99.90
40670;DHT22;26355;45.528;9.234;2022-09-14T17:45:39;27.90;99.90
40670;DHT22;26355;45.528;9.234;2022-09-14T17:48:14;27.90;99.90